sensor_id;sensor_type;location;lat;lon;timestamp;temperature;humidity
57108;DHT22;42987;52.916;6.542;2023-05-14T00:01:44;12.50;99.90
57108;DHT22;42987;52.916;6.542;2023-05-14T00:04:11;12.50;99.90
57108;DHT22;42987;52.916;6.542;2023-05-14T00:06:37;12.50;99.90
57108;DHT22;42987;52.916;6.542;2023-05-14T00:09:02;12.40;99.90
57108;DHT22;42987;52.916;6.542;2023-05-14T00:11:29;12.40;99.90
57108;DHT22;42987;52.916;6.542;2023-05-14T00:13:55;12.40;99.90
57108;DHT22;42987;52.916;6.542;2023-05-14T00:16:24;12.40;99.90
57108;DHT22;42987;52.916;6.542;2023-05-14T00:18:50;12.40;99.90
57108;DHT22;42987;52.916;6.542;2023-05-14T00:21:16;12.40;99.90
57108;DHT22;42987;52.916;6.542;2023-05-14T00:23:41;12.40;99.90
57108;DHT22;42987;52.916;6.542;2023-05-14T00:26:07;12.50;99.90
57108;DHT22;42987;52.916;6.542;2023-05-14T00:28:33;12.50;99.90
57108;DHT22;42987;52.916;6.542;2023-05-14T00:30:59;12.50;99.90
57108;DHT22;42987;52.916;6.542;2023-05-14T00:33:25;12.50;99.90
57108;DHT22;42987;52.916;6.542;2023-05-14T00:35:53;12.40;99.90
57108;DHT22;42987;52.916;6.542;2023-05-14T00:38:19;12.50;99.90
57108;DHT22;42987;52.916;6.542;2023-05-14T00:40:45;12.40;99.90
57108;DHT22;42987;52.916;6.542;2023-05-14T00:43:19;12.40;99.90
57108;DHT22;42987;52.916;6.542;2023-05-14T00:45:52;12.40;99.90
57108;DHT22;42987;52.916;6.542;2023-05-14T00:48:19;12.30;99.90
57108;DHT22;42987;52.916;6.542;2023-05-14T00:50:46;12.30;99.90
57108;DHT22;42987;52.916;6.542;2023-05-14T00:53:12;12.20;99.90
57108;DHT22;42987;52.916;6.542;2023-05-14T00:55:40;12.30;99.90
57108;DHT22;42987;52.916;6.542;2023-05-14T00:58:09;12.30;99.90
57108;DHT22;42987;52.916;6.542;2023-05-14T01:00:36;12.30;99.90
57108;DHT22;42987;52.916;6.542;2023-05-14T01:03:03;12.30;99.90
57108;DHT22;42987;52.916;6.542;2023-05-14T01:06:05;12.30;99.90
57108;DHT22;42987;52.916;6.542;2023-05-14T01:14:41;12.20;99.90
57108;DHT22;42987;52.916;6.542;2023-05-14T01:17:10;12.20;99.90
57108;DHT22;42987;52.916;6.542;2023-05-14T01:19:42;12.20;99.90
57108;DHT22;42987;52.916;6.542;2023-05-14T01:22:09;12.10;99.90
57108;DHT22;42987;52.916;6.542;2023-05-14T01:24:39;12.00;99.90
57108;DHT22;42987;52.916;6.542;2023-05-14T01:27:19;12.00;99.90
57108;DHT22;42987;52.916;6.542;2023-05-14T01:30:18;12.00;99.90
57108;DHT22;42987;52.916;6.542;2023-05-14T01:32:47;12.00;99.90
57108;DHT22;42987;52.916;6.542;2023-05-14T01:35:15;12.00;99.90
57108;DHT22;42987;52.916;6.542;2023-05-14T01:37:43;12.00;99.90
57108;DHT22;42987;52.916;6.542;2023-05-14T01:40:10;12.00;99.90
57108;DHT22;42987;52.916;6.542;2023-05-14T01:42:37;12.00;99.90
57108;DHT22;42987;52.916;6.542;2023-05-14T01:45:03;12.00;99.90
57108;DHT22;42987;52.916;6.542;2023-05-14T01:47:29;11.90;99.90
57108;DHT22;42987;52.916;6.542;2023-05-14T01:49:54;11.90;99.90
57108;DHT22;42987;52.916;6.542;2023-05-14T01:52:23;11.80;99.90
57108;DHT22;42987;52.916;6.542;2023-05-14T01:54:49;11.80;99.90
57108;DHT22;42987;52.916;6.542;2023-05-14T01:57:15;11.80;99.90
57108;DHT22;42987;52.916;6.542;2023-05-14T01:59:41;11.70;99.90
57108;DHT22;42987;52.916;6.542;2023-05-14T02:02:07;11.70;99.90
57108;DHT22;42987;52.916;6.542;2023-05-14T02:04:33;11.70;99.90
57108;DHT22;42987;52.916;6.542;2023-05-14T02:06:58;11.70;99.90
57108;DHT22;42987;52.916;6.542;2023-05-14T02:09:24;11.70;99.90
57108;DHT22;42987;52.916;6.542;2023-05-14T02:11:52;11.60;99.90
57108;DHT22;42987;52.916;6.542;2023-05-14T02:14:18;11.60;99.90
57108;DHT22;42987;52.916;6.542;2023-05-14T02:16:44;11.60;99.90
57108;DHT22;42987;52.916;6.542;2023-05-14T02:19:10;11.60;99.90
57108;DHT22;42987;52.916;6.542;2023-05-14T02:21:35;11.60;99.90
57108;DHT22;42987;52.916;6.542;2023-05-14T02:24:01;11.60;99.90
57108;DHT22;42987;52.916;6.542;2023-05-14T02:26:27;11.50;99.90
57108;DHT22;42987;52.916;6.542;2023-05-14T02:28:53;11.50;99.90
57108;DHT22;42987;52.916;6.542;2023-05-14T02:31:22;11.50;99.90
57108;DHT22;42987;52.916;6.542;2023-05-14T02:33:53;11.50;99.90
57108;DHT22;42987;52.916;6.542;2023-05-14T02:36:22;11.40;99.90
57108;DHT22;42987;52.916;6.542;2023-05-14T02:38:47;11.50;99.90
57108;DHT22;42987;52.916;6.542;2023-05-14T02:41:13;11.50;99.90
57108;DHT22;42987;52.916;6.542;2023-05-14T02:43:39;11.40;99.90
57108;DHT22;42987;52.916;6.542;2023-05-14T02:46:05;11.50;99.90
57108;DHT22;42987;52.916;6.542;2023-05-14T02:48:31;11.50;99.90
57108;DHT22;42987;52.916;6.542;2023-05-14T02:50:57;11.40;99.90
57108;DHT22;42987;52.916;6.542;2023-05-14T02:53:22;11.50;99.90
57108;DHT22;42987;52.916;6.542;2023-05-14T02:55:48;11.50;99.90
57108;DHT22;42987;52.916;6.542;2023-05-14T02:58:14;11.50;99.90
57108;DHT22;42987;52.916;6.542;2023-05-14T03:00:40;11.40;99.90
57108;DHT22;42987;52.916;6.542;2023-05-14T03:03:06;11.40;99.90
57108;DHT22;42987;52.916;6.542;2023-05-14T03:05:32;11.40;99.90
57108;DHT22;42987;52.916;6.542;2023-05-14T03:07:57;11.50;99.90
57108;DHT22;42987;52.916;6.542;2023-05-14T03:10:26;11.40;99.90
57108;DHT22;42987;52.916;6.542;2023-05-14T03:12:52;11.40;99.90
57108;DHT22;42987;52.916;6.542;2023-05-14T03:15:18;11.30;99.90
57108;DHT22;42987;52.916;6.542;2023-05-14T03:17:43;11.40;99.90
57108;DHT22;42987;52.916;6.542;2023-05-14T03:20:10;11.30;99.90
57108;DHT22;42987;52.916;6.542;2023-05-14T03:22:36;11.40;99.90
57108;DHT22;42987;52.916;6.542;2023-05-14T03:25:02;11.40;99.90
57108;DHT22;42987;52.916;6.542;2023-05-14T03:27:28;11.30;99.90
57108;DHT22;42987;52.916;6.542;2023-05-14T03:29:54;11.30;99.90
57108;DHT22;42987;52.916;6.542;2023-05-14T03:32:20;11.30;99.90
57108;DHT22;42987;52.916;6.542;2023-05-14T03:34:48;11.30;99.90
57108;DHT22;42987;52.916;6.542;2023-05-14T03:37:14;11.30;99.90
57108;DHT22;42987;52.916;6.542;2023-05-14T03:39:39;11.30;99.90
57108;DHT22;42987;52.916;6.542;2023-05-14T03:42:05;11.30;99.90
57108;DHT22;42987;52.916;6.542;2023-05-14T03:44:31;11.20;99.90
57108;DHT22;42987;52.916;6.542;2023-05-14T03:46:57;11.20;99.90
57108;DHT22;42987;52.916;6.542;2023-05-14T03:49:23;11.20;99.90
57108;DHT22;42987;52.916;6.542;2023-05-14T03:51:48;11.20;99.90
57108;DHT22;42987;52.916;6.542;2023-05-14T03:54:14;11.10;99.90
57108;DHT22;42987;52.916;6.542;2023-05-14T03:56:40;11.10;99.90
57108;DHT22;42987;52.916;6.542;2023-05-14T03:59:06;11.10;99.90
57108;DHT22;42987;52.916;6.542;2023-05-14T04:01:31;11.00;99.90
57108;DHT22;42987;52.916;6.542;2023-05-14T04:04:00;11.00;99.90
57108;DHT22;42987;52.916;6.542;2023-05-14T04:06:26;11.00;99.90
57108;DHT22;42987;52.916;6.542;2023-05-14T04:08:52;11.00;99.90
57108;DHT22;42987;52.916;6.542;2023-05-14T04:11:18;11.00;99.90
57108;DHT22;42987;52.916;6.542;2023-05-14T04:13:43;11.00;99.90
57108;DHT22;42987;52.916;6.542;2023-05-14T04:16:09;11.00;99.90
57108;DHT22;42987;52.916;6.542;2023-05-14T04:18:35;11.10;99.90
57108;DHT22;42987;52.916;6.542;2023-05-14T04:21:01;11.10;99.90
57108;DHT22;42987;52.916;6.542;2023-05-14T04:23:28;11.10;99.90
57108;DHT22;42987;52.916;6.542;2023-05-14T04:25:53;11.10;99.90
57108;DHT22;42987;52.916;6.542;2023-05-14T04:28:19;11.10;99.90
57108;DHT22;42987;52.916;6.542;2023-05-14T04:30:45;11.20;99.90
57108;DHT22;42987;52.916;6.542;2023-05-14T04:33:11;11.10;99.90
57108;DHT22;42987;52.916;6.542;2023-05-14T04:35:37;11.20;99.90
57108;DHT22;42987;52.916;6.542;2023-05-14T04:38:03;11.20;99.90
57108;DHT22;42987;52.916;6.542;2023-05-14T04:40:30;11.20;99.90
57108;DHT22;42987;52.916;6.542;2023-05-14T04:42:56;11.20;99.90
57108;DHT22;42987;52.916;6.542;2023-05-14T04:45:22;11.20;99.90
57108;DHT22;42987;52.916;6.542;2023-05-14T04:47:48;11.20;99.90
57108;DHT22;42987;52.916;6.542;2023-05-14T04:50:14;11.20;99.90
57108;DHT22;42987;52.916;6.542;2023-05-14T04:52:40;11.20;99.90
57108;DHT22;42987;52.916;6.542;2023-05-14T04:55:06;11.20;99.90
57108;DHT22;42987;52.916;6.542;2023-05-14T04:57:32;11.20;99.90
57108;DHT22;42987;52.916;6.542;2023-05-14T04:59:58;11.20;99.90
57108;DHT22;42987;52.916;6.542;2023-05-14T05:02:24;11.10;99.90
57108;DHT22;42987;52.916;6.542;2023-05-14T05:04:53;11.10;99.90
57108;DHT22;42987;52.916;6.542;2023-05-14T05:07:18;11.20;99.90
57108;DHT22;42987;52.916;6.542;2023-05-14T05:09:44;11.20;99.90
57108;DHT22;42987;52.916;6.542;2023-05-14T05:12:10;11.10;99.90
57108;DHT22;42987;52.916;6.542;2023-05-14T05:14:36;11.20;99.90
57108;DHT22;42987;52.916;6.542;2023-05-14T05:17:02;11.20;99.90
57108;DHT22;42987;52.916;6.542;2023-05-14T05:19:28;11.20;99.90
57108;DHT22;42987;52.916;6.542;2023-05-14T05:21:54;11.20;99.90
57108;DHT22;42987;52.916;6.542;2023-05-14T05:24:19;11.30;99.90
57108;DHT22;42987;52.916;6.542;2023-05-14T05:26:45;11.20;99.90
57108;DHT22;42987;52.916;6.542;2023-05-14T05:29:11;11.30;99.90
57108;DHT22;42987;52.916;6.542;2023-05-14T05:31:37;11.30;99.90
57108;DHT22;42987;52.916;6.542;2023-05-14T05:34:02;11.30;99.90
57108;DHT22;42987;52.916;6.542;2023-05-14T05:36:28;11.40;99.90
57108;DHT22;42987;52.916;6.542;2023-05-14T05:38:54;11.40;99.90
57108;DHT22;42987;52.916;6.542;2023-05-14T05:41:23;11.50;99.90
57108;DHT22;42987;52.916;6.542;2023-05-14T05:43:49;11.50;99.90
57108;DHT22;42987;52.916;6.542;2023-05-14T05:46:15;11.50;99.90
57108;DHT22;42987;52.916;6.542;2023-05-14T05:48:40;11.60;99.90
57108;DHT22;42987;52.916;6.542;2023-05-14T05:51:06;11.60;99.90
57108;DHT22;42987;52.916;6.542;2023-05-14T05:53:32;11.70;99.90
57108;DHT22;42987;52.916;6.542;2023-05-14T05:55:58;11.70;99.90
57108;DHT22;42987;52.916;6.542;2023-05-14T05:58:23;11.80;99.90
57108;DHT22;42987;52.916;6.542;2023-05-14T06:00:49;11.90;99.90
57108;DHT22;42987;52.916;6.542;2023-05-14T06:03:15;12.00;99.90
57108;DHT22;42987;52.916;6.542;2023-05-14T06:05:41;12.00;99.90
57108;DHT22;42987;52.916;6.542;2023-05-14T06:08:06;12.10;99.90
57108;DHT22;42987;52.916;6.542;2023-05-14T06:10:32;12.10;99.90
57108;DHT22;42987;52.916;6.542;2023-05-14T06:12:59;12.20;99.90
57108;DHT22;42987;52.916;6.542;2023-05-14T06:15:24;12.30;99.90
57108;DHT22;42987;52.916;6.542;2023-05-14T06:17:50;12.40;99.90
57108;DHT22;42987;52.916;6.542;2023-05-14T06:20:16;12.50;99.90
57108;DHT22;42987;52.916;6.542;2023-05-14T06:22:42;12.60;99.90
57108;DHT22;42987;52.916;6.542;2023-05-14T06:25:08;12.70;99.90
57108;DHT22;42987;52.916;6.542;2023-05-14T06:27:34;12.80;99.90
57108;DHT22;42987;52.916;6.542;2023-05-14T06:30:00;12.90;99.90
57108;DHT22;42987;52.916;6.542;2023-05-14T06:32:26;13.00;99.90
57108;DHT22;42987;52.916;6.542;2023-05-14T06:34:52;13.10;99.90
57108;DHT22;42987;52.916;6.542;2023-05-14T06:37:18;13.20;99.90
57108;DHT22;42987;52.916;6.542;2023-05-14T06:39:43;13.30;99.90
57108;DHT22;42987;52.916;6.542;2023-05-14T06:42:15;13.40;99.90
57108;DHT22;42987;52.916;6.542;2023-05-14T06:44:41;13.60;99.90
57108;DHT22;42987;52.916;6.542;2023-05-14T06:47:07;13.70;99.90
57108;DHT22;42987;52.916;6.542;2023-05-14T06:49:35;13.80;99.90
57108;DHT22;42987;52.916;6.542;2023-05-14T06:52:02;14.00;99.90
57108;DHT22;42987;52.916;6.542;2023-05-14T06:54:28;14.10;99.90
57108;DHT22;42987;52.916;6.542;2023-05-14T06:56:54;14.20;99.90
57108;DHT22;42987;52.916;6.542;2023-05-14T06:59:20;14.20;99.90
57108;DHT22;42987;52.916;6.542;2023-05-14T07:01:49;14.30;99.90
57108;DHT22;42987;52.916;6.542;2023-05-14T07:04:14;14.30;99.90
57108;DHT22;42987;52.916;6.542;2023-05-14T07:06:40;14.40;99.90
57108;DHT22;42987;52.916;6.542;2023-05-14T07:09:06;14.50;99.90
57108;DHT22;42987;52.916;6.542;2023-05-14T07:11:35;14.60;99.90
57108;DHT22;42987;52.916;6.542;2023-05-14T07:14:00;14.80;99.90
57108;DHT22;42987;52.916;6.542;2023-05-14T07:16:26;14.80;99.90
57108;DHT22;42987;52.916;6.542;2023-05-14T07:18:52;14.90;99.90
57108;DHT22;42987;52.916;6.542;2023-05-14T07:21:18;15.00;99.90
57108;DHT22;42987;52.916;6.542;2023-05-14T07:23:44;15.00;99.90
57108;DHT22;42987;52.916;6.542;2023-05-14T07:26:10;15.10;99.90
57108;DHT22;42987;52.916;6.542;2023-05-14T07:28:36;15.10;99.90
57108;DHT22;42987;52.916;6.542;2023-05-14T07:31:05;15.20;99.90
57108;DHT22;42987;52.916;6.542;2023-05-14T07:33:34;15.30;99.90
57108;DHT22;42987;52.916;6.542;2023-05-14T07:36:00;15.30;99.90
57108;DHT22;42987;52.916;6.542;2023-05-14T07:38:26;15.40;99.90
57108;DHT22;42987;52.916;6.542;2023-05-14T07:40:52;15.50;99.90
57108;DHT22;42987;52.916;6.542;2023-05-14T07:43:18;15.60;99.90
57108;DHT22;42987;52.916;6.542;2023-05-14T07:45:44;15.70;99.90
57108;DHT22;42987;52.916;6.542;2023-05-14T07:48:10;15.80;99.90
57108;DHT22;42987;52.916;6.542;2023-05-14T07:50:36;16.00;99.90
57108;DHT22;42987;52.916;6.542;2023-05-14T07:53:02;16.10;99.90
57108;DHT22;42987;52.916;6.542;2023-05-14T07:55:28;16.20;99.90
57108;DHT22;42987;52.916;6.542;2023-05-14T07:57:54;16.30;99.90
57108;DHT22;42987;52.916;6.542;2023-05-14T08:00:23;16.40;99.90
57108;DHT22;42987;52.916;6.542;2023-05-14T08:02:49;16.40;99.90
57108;DHT22;42987;52.916;6.542;2023-05-14T08:05:16;16.60;99.90
57108;DHT22;42987;52.916;6.542;2023-05-14T08:07:43;16.60;99.90
57108;DHT22;42987;52.916;6.542;2023-05-14T08:10:09;16.60;99.90
57108;DHT22;42987;52.916;6.542;2023-05-14T08:12:35;16.70;99.90
57108;DHT22;42987;52.916;6.542;2023-05-14T08:15:01;16.70;99.90
57108;DHT22;42987;52.916;6.542;2023-05-14T08:17:27;16.80;99.90
57108;DHT22;42987;52.916;6.542;2023-05-14T08:19:53;16.90;99.90
57108;DHT22;42987;52.916;6.542;2023-05-14T08:22:22;17.00;99.90
57108;DHT22;42987;52.916;6.542;2023-05-14T08:24:48;17.20;99.90
57108;DHT22;42987;52.916;6.542;2023-05-14T08:27:14;17.20;99.90
57108;DHT22;42987;52.916;6.542;2023-05-14T08:29:41;17.30;99.90
57108;DHT22;42987;52.916;6.542;2023-05-14T08:32:07;17.30;99.90
57108;DHT22;42987;52.916;6.542;2023-05-14T08:34:33;17.20;99.90
57108;DHT22;42987;52.916;6.542;2023-05-14T08:36:59;17.20;99.90
57108;DHT22;42987;52.916;6.542;2023-05-14T08:39:25;17.30;99.90
57108;DHT22;42987;52.916;6.542;2023-05-14T08:41:51;17.30;99.90
57108;DHT22;42987;52.916;6.542;2023-05-14T08:44:18;17.30;99.90
57108;DHT22;42987;52.916;6.542;2023-05-14T08:46:44;17.30;99.90
57108;DHT22;42987;52.916;6.542;2023-05-14T08:51:48;17.40;99.90
57108;DHT22;42987;52.916;6.542;2023-05-14T08:54:20;17.40;99.90
57108;DHT22;42987;52.916;6.542;2023-05-14T08:56:53;17.40;99.90
57108;DHT22;42987;52.916;6.542;2023-05-14T08:59:18;17.40;99.90
57108;DHT22;42987;52.916;6.542;2023-05-14T09:01:52;17.50;99.90
57108;DHT22;42987;52.916;6.542;2023-05-14T09:04:22;17.50;99.90
57108;DHT22;42987;52.916;6.542;2023-05-14T09:06:50;17.60;99.90
57108;DHT22;42987;52.916;6.542;2023-05-14T09:09:17;17.70;99.90
57108;DHT22;42987;52.916;6.542;2023-05-14T09:11:47;17.80;99.90
57108;DHT22;42987;52.916;6.542;2023-05-14T09:14:16;17.80;99.90
57108;DHT22;42987;52.916;6.542;2023-05-14T09:16:46;17.90;99.90
57108;DHT22;42987;52.916;6.542;2023-05-14T09:19:12;17.90;99.90
57108;DHT22;42987;52.916;6.542;2023-05-14T09:21:39;17.90;99.90
57108;DHT22;42987;52.916;6.542;2023-05-14T09:24:05;18.00;99.90
57108;DHT22;42987;52.916;6.542;2023-05-14T09:26:33;17.90;99.90
57108;DHT22;42987;52.916;6.542;2023-05-14T09:28:59;18.00;99.90
57108;DHT22;42987;52.916;6.542;2023-05-14T09:31:28;18.10;99.90
57108;DHT22;42987;52.916;6.542;2023-05-14T09:33:55;18.10;99.90
57108;DHT22;42987;52.916;6.542;2023-05-14T09:36:24;18.20;99.90
57108;DHT22;42987;52.916;6.542;2023-05-14T09:38:52;18.30;99.90
57108;DHT22;42987;52.916;6.542;2023-05-14T09:41:18;18.30;99.90
57108;DHT22;42987;52.916;6.542;2023-05-14T09:43:45;18.30;99.90
57108;DHT22;42987;52.916;6.542;2023-05-14T09:46:11;18.40;99.90
57108;DHT22;42987;52.916;6.542;2023-05-14T09:48:36;18.40;99.90
57108;DHT22;42987;52.916;6.542;2023-05-14T09:51:02;18.40;99.90
57108;DHT22;42987;52.916;6.542;2023-05-14T09:53:31;18.50;99.90
57108;DHT22;42987;52.916;6.542;2023-05-14T09:55:58;18.50;99.90
57108;DHT22;42987;52.916;6.542;2023-05-14T09:58:24;18.70;99.90
57108;DHT22;42987;52.916;6.542;2023-05-14T10:00:51;18.80;99.90
57108;DHT22;42987;52.916;6.542;2023-05-14T10:03:19;18.90;99.90
57108;DHT22;42987;52.916;6.542;2023-05-14T10:05:46;19.00;99.90
57108;DHT22;42987;52.916;6.542;2023-05-14T10:08:49;19.10;99.90
57108;DHT22;42987;52.916;6.542;2023-05-14T10:11:18;19.20;99.90
57108;DHT22;42987;52.916;6.542;2023-05-14T10:14:04;19.40;99.90
57108;DHT22;42987;52.916;6.542;2023-05-14T10:16:50;19.60;99.90
57108;DHT22;42987;52.916;6.542;2023-05-14T10:19:19;19.60;99.90
57108;DHT22;42987;52.916;6.542;2023-05-14T10:21:52;19.60;99.90
57108;DHT22;42987;52.916;6.542;2023-05-14T10:24:18;19.60;99.90
57108;DHT22;42987;52.916;6.542;2023-05-14T10:26:44;19.80;99.90
57108;DHT22;42987;52.916;6.542;2023-05-14T10:29:11;19.80;99.90
57108;DHT22;42987;52.916;6.542;2023-05-14T10:31:53;20.00;99.90
57108;DHT22;42987;52.916;6.542;2023-05-14T10:34:39;20.10;99.90
57108;DHT22;42987;52.916;6.542;2023-05-14T10:37:18;20.20;99.90
57108;DHT22;42987;52.916;6.542;2023-05-14T10:39:52;20.30;97.00
57108;DHT22;42987;52.916;6.542;2023-05-14T10:42:34;20.40;95.70
57108;DHT22;42987;52.916;6.542;2023-05-14T10:45:03;20.50;95.20
57108;DHT22;42987;52.916;6.542;2023-05-14T10:47:32;20.50;95.50
57108;DHT22;42987;52.916;6.542;2023-05-14T10:50:01;20.50;95.80
57108;DHT22;42987;52.916;6.542;2023-05-14T10:52:26;20.60;98.50
57108;DHT22;42987;52.916;6.542;2023-05-14T10:54:58;20.70;99.90
57108;DHT22;42987;52.916;6.542;2023-05-14T10:57:28;20.70;99.60
57108;DHT22;42987;52.916;6.542;2023-05-14T10:59:55;20.80;98.70
57108;DHT22;42987;52.916;6.542;2023-05-14T11:02:30;20.80;98.40
57108;DHT22;42987;52.916;6.542;2023-05-14T11:07:34;20.80;99.00
57108;DHT22;42987;52.916;6.542;2023-05-14T11:10:09;20.80;97.30
57108;DHT22;42987;52.916;6.542;2023-05-14T11:12:37;20.80;95.20
57108;DHT22;42987;52.916;6.542;2023-05-14T11:15:08;20.90;95.80
57108;DHT22;42987;52.916;6.542;2023-05-14T11:17:35;20.90;95.40
57108;DHT22;42987;52.916;6.542;2023-05-14T11:20:02;20.90;93.90
57108;DHT22;42987;52.916;6.542;2023-05-14T11:22:30;20.90;93.80
57108;DHT22;42987;52.916;6.542;2023-05-14T11:24:55;20.90;94.30
57108;DHT22;42987;52.916;6.542;2023-05-14T11:27:22;21.10;95.40
57108;DHT22;42987;52.916;6.542;2023-05-14T11:29:49;21.20;94.00
57108;DHT22;42987;52.916;6.542;2023-05-14T11:32:16;21.30;92.10
57108;DHT22;42987;52.916;6.542;2023-05-14T11:34:43;21.40;90.60
57108;DHT22;42987;52.916;6.542;2023-05-14T11:37:10;21.50;87.30
57108;DHT22;42987;52.916;6.542;2023-05-14T11:39:38;21.50;83.30
57108;DHT22;42987;52.916;6.542;2023-05-14T11:42:09;21.50;83.60
57108;DHT22;42987;52.916;6.542;2023-05-14T11:44:37;21.60;83.00
57108;DHT22;42987;52.916;6.542;2023-05-14T11:47:03;21.60;82.60
57108;DHT22;42987;52.916;6.542;2023-05-14T11:49:30;21.60;81.40
57108;DHT22;42987;52.916;6.542;2023-05-14T11:52:01;21.50;79.70
57108;DHT22;42987;52.916;6.542;2023-05-14T11:54:27;21.50;77.70
57108;DHT22;42987;52.916;6.542;2023-05-14T11:56:57;21.60;74.40
57108;DHT22;42987;52.916;6.542;2023-05-14T11:59:24;21.70;74.40
57108;DHT22;42987;52.916;6.542;2023-05-14T12:01:51;21.80;70.60
57108;DHT22;42987;52.916;6.542;2023-05-14T12:04:18;21.80;68.60
57108;DHT22;42987;52.916;6.542;2023-05-14T12:06:47;21.80;67.90
57108;DHT22;42987;52.916;6.542;2023-05-14T12:09:18;21.70;67.70
57108;DHT22;42987;52.916;6.542;2023-05-14T12:11:49;21.60;67.50
57108;DHT22;42987;52.916;6.542;2023-05-14T12:14:20;21.60;69.20
57108;DHT22;42987;52.916;6.542;2023-05-14T12:16:49;21.60;69.50
57108;DHT22;42987;52.916;6.542;2023-05-14T12:19:19;21.60;71.20
57108;DHT22;42987;52.916;6.542;2023-05-14T12:21:48;21.60;70.20
57108;DHT22;42987;52.916;6.542;2023-05-14T12:24:18;21.60;69.80
57108;DHT22;42987;52.916;6.542;2023-05-14T12:26:49;21.60;69.10
57108;DHT22;42987;52.916;6.542;2023-05-14T12:29:16;21.70;69.70
57108;DHT22;42987;52.916;6.542;2023-05-14T12:31:46;21.80;71.70
57108;DHT22;42987;52.916;6.542;2023-05-14T12:34:13;21.80;69.10
57108;DHT22;42987;52.916;6.542;2023-05-14T12:36:39;21.90;69.20
57108;DHT22;42987;52.916;6.542;2023-05-14T12:39:05;21.90;65.90
57108;DHT22;42987;52.916;6.542;2023-05-14T12:41:31;21.90;67.50
57108;DHT22;42987;52.916;6.542;2023-05-14T12:43:57;22.00;67.60
57108;DHT22;42987;52.916;6.542;2023-05-14T12:46:24;22.00;63.90
57108;DHT22;42987;52.916;6.542;2023-05-14T12:48:54;22.00;63.00
57108;DHT22;42987;52.916;6.542;2023-05-14T12:51:20;22.00;62.90
57108;DHT22;42987;52.916;6.542;2023-05-14T12:53:46;22.00;61.00
57108;DHT22;42987;52.916;6.542;2023-05-14T12:56:12;22.00;61.00
57108;DHT22;42987;52.916;6.542;2023-05-14T12:58:38;21.90;63.60
57108;DHT22;42987;52.916;6.542;2023-05-14T13:01:05;21.90;60.70
57108;DHT22;42987;52.916;6.542;2023-05-14T13:03:31;21.90;63.10
57108;DHT22;42987;52.916;6.542;2023-05-14T13:05:57;21.80;62.30
57108;DHT22;42987;52.916;6.542;2023-05-14T13:08:26;21.80;62.50
57108;DHT22;42987;52.916;6.542;2023-05-14T13:10:52;21.80;62.20
57108;DHT22;42987;52.916;6.542;2023-05-14T13:13:18;21.90;61.70
57108;DHT22;42987;52.916;6.542;2023-05-14T13:15:45;21.90;61.00
57108;DHT22;42987;52.916;6.542;2023-05-14T13:18:16;21.80;58.90
57108;DHT22;42987;52.916;6.542;2023-05-14T13:20:45;21.70;60.40
57108;DHT22;42987;52.916;6.542;2023-05-14T13:23:12;21.70;60.50
57108;DHT22;42987;52.916;6.542;2023-05-14T13:25:38;21.70;59.40
57108;DHT22;42987;52.916;6.542;2023-05-14T13:28:07;21.70;60.40
57108;DHT22;42987;52.916;6.542;2023-05-14T13:30:33;21.80;59.60
57108;DHT22;42987;52.916;6.542;2023-05-14T13:32:59;21.80;59.10
57108;DHT22;42987;52.916;6.542;2023-05-14T13:35:27;21.80;60.50
57108;DHT22;42987;52.916;6.542;2023-05-14T13:37:52;21.80;60.80
57108;DHT22;42987;52.916;6.542;2023-05-14T13:40:18;21.90;61.20
57108;DHT22;42987;52.916;6.542;2023-05-14T13:42:44;21.90;59.00
57108;DHT22;42987;52.916;6.542;2023-05-14T13:45:10;21.80;58.10
57108;DHT22;42987;52.916;6.542;2023-05-14T13:47:37;21.80;58.10
57108;DHT22;42987;52.916;6.542;2023-05-14T13:50:03;21.80;58.40
57108;DHT22;42987;52.916;6.542;2023-05-14T13:52:29;21.90;58.80
57108;DHT22;42987;52.916;6.542;2023-05-14T13:54:55;21.90;56.20
57108;DHT22;42987;52.916;6.542;2023-05-14T13:57:21;22.00;55.70
57108;DHT22;42987;52.916;6.542;2023-05-14T13:59:48;21.90;54.70
57108;DHT22;42987;52.916;6.542;2023-05-14T14:02:14;21.90;56.70
57108;DHT22;42987;52.916;6.542;2023-05-14T14:04:40;22.00;57.40
57108;DHT22;42987;52.916;6.542;2023-05-14T14:07:05;22.00;59.70
57108;DHT22;42987;52.916;6.542;2023-05-14T14:09:31;22.10;59.40
57108;DHT22;42987;52.916;6.542;2023-05-14T14:12:04;22.20;58.10
57108;DHT22;42987;52.916;6.542;2023-05-14T14:14:30;22.20;57.40
57108;DHT22;42987;52.916;6.542;2023-05-14T14:16:56;22.20;56.80
57108;DHT22;42987;52.916;6.542;2023-05-14T14:19:22;22.20;55.70
57108;DHT22;42987;52.916;6.542;2023-05-14T14:21:48;22.10;55.30
57108;DHT22;42987;52.916;6.542;2023-05-14T14:24:14;22.10;55.30
57108;DHT22;42987;52.916;6.542;2023-05-14T14:26:39;22.10;54.10
57108;DHT22;42987;52.916;6.542;2023-05-14T14:29:05;22.00;54.20
57108;DHT22;42987;52.916;6.542;2023-05-14T14:31:31;22.00;52.80
57108;DHT22;42987;52.916;6.542;2023-05-14T14:33:57;22.00;52.30
57108;DHT22;42987;52.916;6.542;2023-05-14T14:36:22;21.90;52.60
57108;DHT22;42987;52.916;6.542;2023-05-14T14:38:48;21.90;54.00
57108;DHT22;42987;52.916;6.542;2023-05-14T14:41:14;21.80;53.40
57108;DHT22;42987;52.916;6.542;2023-05-14T14:43:41;21.80;53.20
57108;DHT22;42987;52.916;6.542;2023-05-14T14:46:07;21.80;54.40
57108;DHT22;42987;52.916;6.542;2023-05-14T14:48:35;21.80;53.30
57108;DHT22;42987;52.916;6.542;2023-05-14T14:51:06;21.80;52.90
57108;DHT22;42987;52.916;6.542;2023-05-14T14:53:33;21.80;52.70
57108;DHT22;42987;52.916;6.542;2023-05-14T14:55:59;21.80;53.10
57108;DHT22;42987;52.916;6.542;2023-05-14T14:58:25;21.80;53.70
57108;DHT22;42987;52.916;6.542;2023-05-14T15:00:55;21.80;54.40
57108;DHT22;42987;52.916;6.542;2023-05-14T15:03:21;21.90;54.50
57108;DHT22;42987;52.916;6.542;2023-05-14T15:05:47;21.90;57.00
57108;DHT22;42987;52.916;6.542;2023-05-14T15:08:14;21.90;54.50
57108;DHT22;42987;52.916;6.542;2023-05-14T15:10:39;21.90;55.60
57108;DHT22;42987;52.916;6.542;2023-05-14T15:13:06;21.90;54.60
57108;DHT22;42987;52.916;6.542;2023-05-14T15:15:34;21.90;54.40
57108;DHT22;42987;52.916;6.542;2023-05-14T15:18:00;21.90;53.70
57108;DHT22;42987;52.916;6.542;2023-05-14T15:20:26;21.90;52.00
57108;DHT22;42987;52.916;6.542;2023-05-14T15:22:52;21.90;52.30
57108;DHT22;42987;52.916;6.542;2023-05-14T15:25:19;21.90;54.40
57108;DHT22;42987;52.916;6.542;2023-05-14T15:27:46;21.80;56.00
57108;DHT22;42987;52.916;6.542;2023-05-14T15:30:12;21.90;56.90
57108;DHT22;42987;52.916;6.542;2023-05-14T15:32:38;21.90;61.00
57108;DHT22;42987;52.916;6.542;2023-05-14T15:35:05;21.90;59.00
57108;DHT22;42987;52.916;6.542;2023-05-14T15:37:36;21.90;59.70
57108;DHT22;42987;52.916;6.542;2023-05-14T15:40:03;21.90;60.20
57108;DHT22;42987;52.916;6.542;2023-05-14T15:42:32;22.00;57.80